Aérodrome :
LOGIN :

S'inscrire | Disclaimer

   EN    FR    IT 

 










Légende :    VFR   VFR Marginal   IFR   IFR Intensif   IFR Très Intensif
Visi : 
Plafond : 
>= 8 km
>= 3000ft
5 à 8 km
1000 à 3000 ft
1500m à 5 km
500 à 1000 ft
800 à 1500m
200 à 500 ft
< 800m
< 200 ft
Symboles :   Orages  Brouillard  Fortes neiges  Fortes précipitations  Vent > 20 kt
SIGMETs :   Divers  Orages  Givrage  Turbulence  Onde Orograph.  Cendres Volcan.






- Altitude de l'aérodrome : 31 ft
- Code IATA : INV


EGPE - Inverness

DERNIER METAR :
  • 080850Z 22014KT 9999 VCSH FEW020 SCT035 BKN047 11/07 Q1020

METARs EXPIRÉS :
  • 080820Z 21014KT 9999 -SHRA FEW020 SCT043 11/06 Q1020
  • 080750Z 22016KT 9999 VCSH FEW020 SCT040 10/06 Q1020
  • 080720Z 22015KT 9999 VCSH FEW020 SCT034 10/06 Q1020
  • 080650Z 22010KT 9999 FEW020 SCT038 09/06 Q1020
  • 080620Z 21013KT 9999 FEW020 SCT042 09/06 Q1020

TAF TAF EGPE
Valide du 08 à 09h jusqu'au 08 à 18h UTC


080755Z 0809/0818 22010KT 9999 SCT040
TEMPO 0809/0811 22016G26KT
PROB40
TEMPO 0809/0815 3000 DZ BKN005
BECMG 0812/0815 02008KT
ATIS : +44 1667 464 255



MET'MAP, la Météo Aéronautique d'un coup d'oeil ! - Copyright ORBIFLY Décembre 2007 - Disclaimer

ORBIFLY MET'MAP TEAM :

Programmation & Développement : Alexandra Zaïnal
Sur une idée originale de : Baudouin d'Aumeries
Assistance à la programmation : Marc-Olivier Méhu
Soutien technique & logistique : Manuel Goepfert

Contact : metmap@orbifly.com




SOURCES & CREDITS :

   NOAA